Time;durP1;ratioP1;P1;durP2;ratioP2;P2;SDS_P1;SDS_P2;PMS_P1;PMS_P2;Temp;Humidity;BMP_temperature;BMP_pressure;BME280_temperature;BME280_humidity;BME280_pressure;Samples;Min_cycle;Max_cycle;Signal;HPM_P1;HPM_P2
2021/01/07 00:00:46;;;;;;;14.97;13.50;;;;;;;-0.47;100.00;97610.38;4985405;28;20206;-69
2021/01/07 00:03:13;;;;;;;14.60;13.10;;;;;;;-0.45;100.00;97608.50;4981420;28;20229;-69
2021/01/07 00:05:40;;;;;;;16.00;13.70;;;;;;;-0.50;100.00;97602.78;4983840;28;20202;-69
2021/01/07 00:08:08;;;;;;;17.07;14.07;;;;;;;-0.52;100.00;97604.66;4983825;28;20205;-69
2021/01/07 00:10:35;;;;;;;15.33;13.67;;;;;;;-0.38;100.00;97609.75;4984331;28;20407;-70
2021/01/07 00:13:02;;;;;;;14.67;13.17;;;;;;;-0.48;100.00;97606.09;4983412;28;20209;-70
2021/01/07 00:15:29;;;;;;;14.67;13.17;;;;;;;-0.40;100.00;97603.81;4985864;28;20231;-70
2021/01/07 00:17:56;;;;;;;14.03;12.70;;;;;;;-0.44;100.00;97607.56;4980653;28;20206;-69
2021/01/07 00:20:23;;;;;;;14.90;13.27;;;;;;;-0.39;100.00;97600.25;4983452;28;20240;-70
2021/01/07 00:22:50;;;;;;;15.40;13.80;;;;;;;-0.48;100.00;97599.09;4976954;28;20442;-70
2021/01/07 00:25:18;;;;;;;13.67;12.27;;;;;;;-0.37;100.00;97607.97;4979260;28;20299;-69
2021/01/07 00:27:45;;;;;;;14.17;12.23;;;;;;;-0.54;100.00;97609.94;4985229;28;20214;-69
2021/01/07 00:30:13;;;;;;;14.87;13.27;;;;;;;-0.57;100.00;97609.31;4981478;28;20705;-70
2021/01/07 00:32:40;;;;;;;15.03;13.37;;;;;;;-0.56;100.00;97606.63;4982345;28;20611;-70
2021/01/07 00:35:08;;;;;;;15.40;13.60;;;;;;;-0.52;100.00;97608.06;4986873;28;20237;-70
2021/01/07 00:37:35;;;;;;;14.20;12.87;;;;;;;-0.48;100.00;97604.31;4984671;28;20213;-70
2021/01/07 00:40:02;;;;;;;14.60;13.10;;;;;;;-0.47;100.00;97611.19;4982827;28;20209;-70
2021/01/07 00:42:36;;;;;;;14.40;12.90;;;;;;;-0.39;100.00;97613.28;4984029;28;20682;-70
2021/01/07 00:45:04;;;;;;;15.63;13.10;;;;;;;-0.34;100.00;97603.38;4979389;28;20230;-70
2021/01/07 00:47:31;;;;;;;13.80;12.07;;;;;;;-0.43;100.00;97609.22;4982130;28;20212;-70
2021/01/07 00:49:58;;;;;;;14.40;12.67;;;;;;;-0.36;100.00;97607.88;4984260;28;20206;-70
2021/01/07 00:52:25;;;;;;;14.07;12.73;;;;;;;-0.42;100.00;97607.44;4979739;28;20233;-70
2021/01/07 00:54:52;;;;;;;15.17;12.03;;;;;;;-0.46;100.00;97606.84;4982374;28;20229;-70
2021/01/07 00:57:19;;;;;;;13.90;12.47;;;;;;;-0.44;100.00;97607.56;4984822;28;20218;-69
2021/01/07 00:59:47;;;;;;;13.83;12.33;;;;;;;-0.45;100.00;97605.91;4977586;28;20202;-70
2021/01/07 01:02:14;;;;;;;14.57;13.07;;;;;;;-0.40;100.00;97608.16;4978369;28;20261;-70
2021/01/07 01:04:41;;;;;;;14.97;12.53;;;;;;;-0.46;100.00;97612.03;4984553;28;20236;-69
2021/01/07 01:07:08;;;;;;;16.20;12.77;;;;;;;-0.52;100.00;97612.47;4984536;28;20357;-70
2021/01/07 01:09:35;;;;;;;15.33;12.73;;;;;;;-0.47;100.00;97613.78;4980462;28;20836;-70
2021/01/07 01:12:03;;;;;;;16.13;13.30;;;;;;;-0.54;100.00;97616.94;4982481;28;20226;-71
2021/01/07 01:14:30;;;;;;;14.40;12.90;;;;;;;-0.60;100.00;97619.00;4985796;28;20236;-70
2021/01/07 01:16:58;;;;;;;13.43;12.07;;;;;;;-0.66;100.00;97624.59;4986085;28;20209;-70
2021/01/07 01:19:25;;;;;;;17.67;13.03;;;;;;;-0.59;100.00;97622.44;4977400;28;20209;-70
2021/01/07 01:21:52;;;;;;;17.17;13.83;;;;;;;-0.65;100.00;97623.69;4983694;28;20561;-70
2021/01/07 01:24:20;;;;;;;15.73;13.00;;;;;;;-0.78;100.00;97621.06;4998294;28;20275;-70
2021/01/07 01:26:47;;;;;;;17.73;12.73;;;;;;;-0.77;100.00;97630.53;4985139;28;20206;-69
2021/01/07 01:29:14;;;;;;;15.03;11.73;;;;;;;-0.77;100.00;97627.91;4979641;28;20225;-71
2021/01/07 01:31:41;;;;;;;16.93;13.17;;;;;;;-0.86;100.00;97632.91;4987983;28;20331;-69
2021/01/07 01:34:09;;;;;;;17.33;12.37;;;;;;;-0.87;100.00;97632.06;4981134;28;20741;-70
2021/01/07 01:36:36;;;;;;;18.97;14.57;;;;;;;-0.89;100.00;97633.94;4982547;28;20448;-70
2021/01/07 01:39:03;;;;;;;15.67;12.60;;;;;;;-0.81;100.00;97634.25;4983280;28;20295;-69
2021/01/07 01:41:30;;;;;;;14.67;12.13;;;;;;;-0.89;100.00;97628.75;4987352;28;20604;-70
2021/01/07 01:43:57;;;;;;;16.33;12.53;;;;;;;-0.94;100.00;97631.66;4982851;28;20232;-70
2021/01/07 01:46:24;;;;;;;15.60;12.17;;;;;;;-0.88;100.00;97633.84;4981538;28;20475;-70
2021/01/07 01:48:51;;;;;;;19.00;12.67;;;;;;;-0.99;100.00;97633.69;4990696;28;20198;-70
2021/01/07 01:51:19;;;;;;;16.47;13.30;;;;;;;-0.98;100.00;97639.75;4977611;28;20624;-70
2021/01/07 01:53:46;;;;;;;15.97;12.03;;;;;;;-0.99;100.00;97640.69;4973752;28;20234;-72
2021/01/07 01:56:15;;;;;;;16.50;11.10;;;;;;;-0.97;100.00;97641.41;4988929;28;20383;-71
2021/01/07 01:58:42;;;;;;;14.13;10.67;;;;;;;-0.91;100.00;97649.66;4985913;28;20208;-71
2021/01/07 02:01:09;;;;;;;15.93;11.97;;;;;;;-0.90;100.00;97648.72;4981913;28;20926;-71
2021/01/07 02:03:40;;;;;;;13.70;11.53;;;;;;;-0.90;100.00;97648.72;4972364;28;20482;-71
2021/01/07 02:06:09;;;;;;;15.90;12.40;;;;;;;-0.86;100.00;97657.16;4987977;28;20474;-71
2021/01/07 02:08:36;;;;;;;13.13;11.53;;;;;;;-0.77;100.00;97653.94;4983371;28;20600;-71
2021/01/07 02:11:03;;;;;;;12.83;10.73;;;;;;;-0.86;100.00;97659.75;4984331;28;20531;-71
2021/01/07 02:13:30;;;;;;;14.53;12.20;;;;;;;-0.85;100.00;97658.00;4981068;28;20491;-71
2021/01/07 02:15:57;;;;;;;12.47;10.90;;;;;;;-0.85;100.00;97652.81;4981794;28;20449;-70
2021/01/07 02:18:24;;;;;;;15.33;12.57;;;;;;;-0.94;100.00;97643.81;4980790;28;20678;-70
2021/01/07 02:20:52;;;;;;;12.13;10.93;;;;;;;-0.98;100.00;97647.56;4990456;28;20451;-71
2021/01/07 02:23:19;;;;;;;13.07;10.80;;;;;;;-1.00;100.00;97645.03;4981180;28;20854;-70
2021/01/07 02:25:46;;;;;;;11.77;10.53;;;;;;;-0.95;100.00;97647.34;4986107;28;20208;-71
2021/01/07 02:28:13;;;;;;;12.30;11.00;;;;;;;-1.02;100.00;97657.31;4976920;28;20217;-71
2021/01/07 02:30:40;;;;;;;12.47;11.17;;;;;;;-0.94;100.00;97647.28;4979253;28;20449;-70
2021/01/07 02:33:07;;;;;;;12.00;10.70;;;;;;;-0.97;100.00;97646.63;4983231;28;20221;-71
2021/01/07 02:35:35;;;;;;;12.53;10.73;;;;;;;-0.98;100.00;97644.97;4985892;28;20210;-71
2021/01/07 02:38:03;;;;;;;11.53;10.17;;;;;;;-1.03;100.00;97646.09;4978270;28;20208;-70
2021/01/07 02:40:30;;;;;;;12.03;10.80;;;;;;;-1.01;100.00;97651.19;4982218;28;20594;-69
2021/01/07 02:42:57;;;;;;;13.73;11.47;;;;;;;-1.05;100.00;97642.75;4982118;28;20201;-69
2021/01/07 02:45:24;;;;;;;12.50;10.87;;;;;;;-0.99;100.00;97640.69;4977588;28;20480;-71
2021/01/07 02:47:51;;;;;;;13.83;11.53;;;;;;;-1.08;100.00;97644.72;4980047;28;20212;-71
2021/01/07 02:50:18;;;;;;;14.20;10.63;;;;;;;-1.09;100.00;97640.44;4983306;28;20206;-70
2021/01/07 02:52:45;;;;;;;14.60;11.27;;;;;;;-1.07;100.00;97643.78;4980534;28;20229;-69
2021/01/07 02:55:13;;;;;;;12.03;10.77;;;;;;;-1.09;100.00;97645.66;4985771;28;20857;-72
2021/01/07 02:57:40;;;;;;;12.83;11.43;;;;;;;-1.09;100.00;97649.09;4984384;28;20212;-71
2021/01/07 03:00:08;;;;;;;12.70;11.10;;;;;;;-1.07;100.00;97641.19;4980761;28;20458;-72
2021/01/07 03:02:35;;;;;;;13.53;11.20;;;;;;;-1.13;100.00;97647.63;4984790;28;20209;-71
2021/01/07 03:05:02;;;;;;;13.60;12.00;;;;;;;-1.04;100.00;97648.78;4987416;28;20220;-72
2021/01/07 03:07:29;;;;;;;13.27;11.47;;;;;;;-1.03;100.00;97651.28;4985610;28;20204;-69
2021/01/07 03:09:56;;;;;;;14.07;11.73;;;;;;;-0.95;100.00;97642.16;4978939;28;20209;-70
2021/01/07 03:12:24;;;;;;;13.33;11.17;;;;;;;-1.00;100.00;97652.03;4981811;28;20233;-69
2021/01/07 03:14:51;;;;;;;14.43;11.70;;;;;;;-1.02;100.00;97642.56;4980616;28;20225;-69
2021/01/07 03:17:18;;;;;;;14.60;12.37;;;;;;;-0.99;100.00;97641.50;4979951;28;20447;-70
2021/01/07 03:19:45;;;;;;;13.60;11.93;;;;;;;-0.99;100.00;97633.69;4984752;28;20213;-71
2021/01/07 03:22:12;;;;;;;16.50;11.93;;;;;;;-1.03;100.00;97648.69;4981501;28;20586;-70
2021/01/07 03:24:39;;;;;;;13.23;11.67;;;;;;;-0.97;100.00;97639.63;4975421;28;20469;-70
2021/01/07 03:27:06;;;;;;;15.40;12.70;;;;;;;-1.09;100.00;97645.66;4983751;28;20221;-70
2021/01/07 03:29:34;;;;;;;13.43;11.50;;;;;;;-1.11;100.00;97640.56;4981308;28;20440;-70
2021/01/07 03:32:01;;;;;;;13.77;12.27;;;;;;;-1.10;100.00;97642.22;4985436;28;20503;-70
2021/01/07 03:34:28;;;;;;;13.13;11.67;;;;;;;-1.12;100.00;97648.44;4984705;28;20229;-72
2021/01/07 03:36:58;;;;;;;15.37;13.57;;;;;;;-1.11;100.00;97648.38;4985350;28;20220;-70
2021/01/07 03:39:25;;;;;;;15.73;13.87;;;;;;;-1.10;100.00;97636.19;4984722;28;20214;-70
2021/01/07 03:41:52;;;;;;;13.93;12.43;;;;;;;-1.08;100.00;97648.16;4976693;28;20202;-70
2021/01/07 03:44:20;;;;;;;14.77;12.53;;;;;;;-1.03;100.00;97653.91;4972957;28;20838;-70
2021/01/07 03:46:48;;;;;;;15.07;13.40;;;;;;;-0.98;100.00;97650.16;4978295;28;20212;-71
2021/01/07 03:49:15;;;;;;;15.40;13.83;;;;;;;-1.07;100.00;97651.59;4977911;28;20202;-70
2021/01/07 03:51:42;;;;;;;17.00;14.00;;;;;;;-1.07;100.00;97648.97;4981404;28;20229;-71
2021/01/07 03:54:09;;;;;;;16.03;13.53;;;;;;;-1.02;100.00;97649.50;4984677;28;20747;-70
2021/01/07 03:56:36;;;;;;;18.00;14.17;;;;;;;-1.06;100.00;97651.50;4987742;28;20621;-70
2021/01/07 03:59:03;;;;;;;16.60;14.47;;;;;;;-1.14;100.00;97647.72;4979802;28;20210;-71
2021/01/07 04:01:30;;;;;;;15.03;13.27;;;;;;;-1.05;100.00;97650.56;4981894;28;20202;-70
2021/01/07 04:03:58;;;;;;;16.70;14.17;;;;;;;-0.97;100.00;97651.81;4980441;28;20236;-70
2021/01/07 04:06:25;;;;;;;15.20;13.70;;;;;;;-1.08;100.00;97655.13;4974591;28;20447;-70
2021/01/07 04:08:52;;;;;;;17.30;15.10;;;;;;;-1.00;100.00;97652.84;4984137;28;20221;-69
2021/01/07 04:11:18;;;;;;;16.00;13.47;;;;;;;-1.06;100.00;97651.50;4976648;28;20228;-70
2021/01/07 04:13:45;;;;;;;17.30;14.27;;;;;;;-1.05;100.00;97647.13;4984743;28;20236;-70
2021/01/07 04:16:13;;;;;;;17.77;14.13;;;;;;;-1.12;100.00;97644.09;4978403;28;20293;-72
2021/01/07 04:18:40;;;;;;;16.67;13.37;;;;;;;-1.05;100.00;97650.56;4983228;28;20224;-71
2021/01/07 04:21:08;;;;;;;16.17;13.90;;;;;;;-1.06;100.00;97642.84;4981229;28;20209;-71
2021/01/07 04:23:35;;;;;;;16.23;13.77;;;;;;;-1.11;100.00;97642.31;4975735;28;20241;-71
2021/01/07 04:26:02;;;;;;;18.33;13.93;;;;;;;-1.17;100.00;97648.72;4974790;28;20205;-71
2021/01/07 04:28:29;;;;;;;14.37;12.73;;;;;;;-1.10;100.00;97647.44;4981476;28;20202;-72
2021/01/07 04:30:56;;;;;;;16.20;13.60;;;;;;;-1.09;100.00;97650.84;4982369;28;20693;-71
2021/01/07 04:33:23;;;;;;;18.20;13.83;;;;;;;-1.09;100.00;97646.50;4976725;28;20233;-70
2021/01/07 04:35:50;;;;;;;17.27;13.73;;;;;;;-1.10;100.00;97641.38;4968290;28;20478;-71
2021/01/07 04:38:18;;;;;;;16.27;14.13;;;;;;;-1.09;100.00;97643.91;4986988;28;20209;-71
2021/01/07 04:40:45;;;;;;;18.07;14.40;;;;;;;-1.19;100.00;97638.44;4973124;28;20209;-72
2021/01/07 04:43:12;;;;;;;17.50;14.87;;;;;;;-1.15;100.00;97641.66;4983943;28;20224;-72
2021/01/07 04:45:39;;;;;;;18.87;15.73;;;;;;;-1.14;100.00;97639.91;4983560;28;20213;-70
2021/01/07 04:48:07;;;;;;;17.93;13.63;;;;;;;-1.15;100.00;97641.66;4977500;28;20217;-71
2021/01/07 04:50:34;;;;;;;18.63;14.93;;;;;;;-1.12;100.00;97643.25;4988598;28;20455;-72
2021/01/07 04:53:02;;;;;;;18.60;15.43;;;;;;;-1.15;100.00;97648.66;4979849;28;20236;-70
2021/01/07 04:55:30;;;;;;;17.10;14.27;;;;;;;-1.17;100.00;97651.34;4981324;28;20456;-72
2021/01/07 04:57:57;;;;;;;20.17;15.30;;;;;;;-1.18;100.00;97655.72;4980829;28;20209;-71
2021/01/07 05:00:24;;;;;;;19.67;15.40;;;;;;;-1.10;100.00;97650.03;4983663;28;20452;-71
2021/01/07 05:02:51;;;;;;;20.00;16.77;;;;;;;-1.20;100.00;97652.38;4981825;28;20480;-70
2021/01/07 05:05:18;;;;;;;18.40;16.00;;;;;;;-1.14;100.00;97652.91;4986430;28;20210;-71
2021/01/07 05:07:45;;;;;;;20.20;15.87;;;;;;;-1.11;100.00;97652.72;4981869;28;20562;-70
2021/01/07 05:10:12;;;;;;;19.57;15.87;;;;;;;-1.12;100.00;97658.84;4987330;28;20627;-71
2021/01/07 05:12:41;;;;;;;19.50;16.00;;;;;;;-1.15;100.00;97659.88;4974643;28;20501;-70
2021/01/07 05:15:09;;;;;;;18.70;16.20;;;;;;;-1.10;100.00;97652.63;4978854;28;20874;-68
2021/01/07 05:17:36;;;;;;;18.70;15.67;;;;;;;-1.09;100.00;97651.69;4978445;28;20455;-71
2021/01/07 05:20:09;;;;;;;19.63;15.50;;;;;;;-1.19;100.00;97646.25;4982599;28;20320;-71
2021/01/07 05:22:37;;;;;;;20.10;15.50;;;;;;;-1.17;100.00;97659.97;4984396;28;21005;-71
2021/01/07 05:25:08;;;;;;;21.37;16.37;;;;;;;-1.19;100.00;97651.44;4981544;28;20825;-71
2021/01/07 05:27:36;;;;;;;19.20;15.13;;;;;;;-1.17;100.00;97648.72;4977227;28;20449;-71
2021/01/07 05:30:08;;;;;;;20.30;15.57;;;;;;;-1.20;100.00;97651.53;4984480;28;20563;-72
2021/01/07 05:32:38;;;;;;;20.43;15.43;;;;;;;-1.21;100.00;97653.31;4985090;28;20499;-70
2021/01/07 05:35:09;;;;;;;19.97;16.07;;;;;;;-1.08;100.00;97653.38;4979469;28;20484;-70
2021/01/07 05:37:38;;;;;;;20.27;15.97;;;;;;;-1.14;100.00;97643.34;4989122;28;20632;-70
2021/01/07 05:40:07;;;;;;;19.27;15.47;;;;;;;-1.14;100.00;97655.50;4990918;28;20204;-70
2021/01/07 05:42:39;;;;;;;19.30;15.70;;;;;;;-1.14;100.00;97652.91;4988653;28;20209;-69
2021/01/07 05:45:09;;;;;;;19.13;15.63;;;;;;;-1.20;100.00;97654.97;4986914;28;20602;-68
2021/01/07 05:47:41;;;;;;;19.43;15.90;;;;;;;-1.12;100.00;97651.06;4978093;28;20485;-70
2021/01/07 05:50:09;;;;;;;20.07;15.93;;;;;;;-1.14;100.00;97663.31;4979277;28;20210;-68
2021/01/07 05:52:41;;;;;;;19.63;15.93;;;;;;;-1.17;100.00;97653.94;4990146;28;20230;-69
2021/01/07 05:55:09;;;;;;;19.83;15.67;;;;;;;-1.19;100.00;97656.66;4980745;28;20226;-66
2021/01/07 05:57:37;;;;;;;20.23;17.03;;;;;;;-1.09;100.00;97650.84;4986093;28;20449;-66
2021/01/07 06:00:07;;;;;;;20.10;15.97;;;;;;;-1.10;100.00;97659.59;4981631;28;20368;-68
2021/01/07 06:02:37;;;;;;;20.17;17.50;;;;;;;-1.14;100.00;97663.31;4975788;28;20705;-70
2021/01/07 06:05:07;;;;;;;19.57;15.60;;;;;;;-1.12;100.00;97659.69;4991230;28;20496;-69
2021/01/07 06:07:35;;;;;;;21.37;16.43;;;;;;;-1.13;100.00;97667.59;4989753;28;20212;-65
2021/01/07 06:10:04;;;;;;;16.80;14.40;;;;;;;-1.14;100.00;97666.75;4984422;28;20583;-66
2021/01/07 06:12:31;;;;;;;20.67;16.33;;;;;;;-1.17;100.00;97667.78;4982094;28;20615;-70
2021/01/07 06:15:00;;;;;;;17.77;15.60;;;;;;;-1.14;100.00;97665.91;4970279;28;20238;-70
2021/01/07 06:17:30;;;;;;;20.90;16.17;;;;;;;-1.15;100.00;97674.66;4987593;28;20231;-70
2021/01/07 06:19:57;;;;;;;20.47;17.63;;;;;;;-1.20;100.00;97664.53;4980514;28;20198;-69
2021/01/07 06:22:24;;;;;;;22.53;16.93;;;;;;;-1.20;100.00;97665.38;4979454;28;20217;-68
2021/01/07 06:24:53;;;;;;;21.70;16.53;;;;;;;-1.09;100.00;97669.06;4971599;28;20511;-68
2021/01/07 06:27:22;;;;;;;21.77;16.57;;;;;;;-1.19;100.00;97669.66;4982678;28;20205;-68
2021/01/07 06:29:51;;;;;;;20.73;17.93;;;;;;;-1.15;100.00;97674.66;4978073;28;20461;-69
2021/01/07 06:32:20;;;;;;;19.30;15.93;;;;;;;-1.10;100.00;97677.78;4979502;28;20488;-69
2021/01/07 06:34:48;;;;;;;23.00;17.77;;;;;;;-1.21;100.00;97675.88;4982470;28;20221;-68
2021/01/07 06:37:30;;;;;;;21.73;18.47;;;;;;;-1.17;100.00;97672.97;4983524;28;20899;-69
2021/01/07 06:39:57;;;;;;;21.50;17.87;;;;;;;-1.13;100.00;97672.78;4988226;28;20205;-69
2021/01/07 06:42:24;;;;;;;20.27;16.20;;;;;;;-1.17;100.00;97672.97;4988042;28;20605;-69
2021/01/07 06:44:57;;;;;;;21.90;18.00;;;;;;;-1.15;100.00;97677.25;4980596;28;20236;-69
2021/01/07 06:47:24;;;;;;;23.10;16.27;;;;;;;-1.11;100.00;97678.72;4977582;28;20460;-69
2021/01/07 06:49:52;;;;;;;18.20;16.07;;;;;;;-1.14;100.00;97676.31;4977971;28;20202;-69
2021/01/07 06:52:21;;;;;;;21.03;16.77;;;;;;;-1.21;100.00;97678.47;4979075;28;20491;-68
2021/01/07 06:54:48;;;;;;;21.10;17.23;;;;;;;-1.14;100.00;97671.94;4973708;28;21022;-65
2021/01/07 06:57:19;;;;;;;21.73;18.00;;;;;;;-1.11;100.00;97673.53;4979671;28;20451;-68
2021/01/07 06:59:59;;;;;;;19.00;15.63;;;;;;;-1.09;100.00;97676.84;4974025;28;20253;-67
2021/01/07 07:02:27;;;;;;;21.23;17.10;;;;;;;-0.90;100.00;97676.50;4978892;28;20218;-68
2021/01/07 07:05:00;;;;;;;21.80;17.27;;;;;;;-0.95;100.00;97687.19;4984079;28;20475;-68
2021/01/07 07:07:57;;;;;;;21.47;16.97;;;;;;;-0.98;100.00;97679.59;4981825;28;20674;-67
2021/01/07 07:11:03;;;;;;;22.53;18.03;;;;;;;-1.10;100.00;97689.03;4969493;28;20203;-69
2021/01/07 07:13:33;;;;;;;23.27;18.20;;;;;;;-1.12;100.00;97688.31;4971928;28;20233;-69
2021/01/07 07:16:02;;;;;;;23.70;18.93;;;;;;;-1.18;100.00;97691.28;4980492;28;20201;-69
2021/01/07 07:18:33;;;;;;;22.70;18.60;;;;;;;-1.06;100.00;97693.13;4978959;28;20524;-68
2021/01/07 07:21:13;;;;;;;21.13;17.77;;;;;;;-1.07;100.00;97693.19;4980391;28;20210;-70
2021/01/07 07:23:45;;;;;;;22.90;18.13;;;;;;;-1.07;100.00;97693.19;4985371;28;20490;-69
2021/01/07 07:26:14;;;;;;;23.53;18.27;;;;;;;-1.10;100.00;97703.81;4984432;28;20873;-69
2021/01/07 07:28:45;;;;;;;23.00;17.60;;;;;;;-1.11;100.00;97699.53;4984102;28;20453;-68
2021/01/07 07:31:13;;;;;;;23.20;17.53;;;;;;;-0.91;100.00;97699.09;4981806;28;20443;-68
2021/01/07 07:33:41;;;;;;;23.43;18.27;;;;;;;-0.82;100.00;97702.03;4982368;28;20240;-68
2021/01/07 07:36:10;;;;;;;22.83;19.10;;;;;;;-0.89;100.00;97699.84;4988835;28;20594;-67
2021/01/07 07:38:38;;;;;;;23.27;18.97;;;;;;;-0.54;100.00;97708.88;4984776;28;20693;-68
2021/01/07 07:41:09;;;;;;;25.40;19.50;;;;;;;-0.71;100.00;97704.75;4988331;28;20976;-69
2021/01/07 07:43:37;;;;;;;25.23;19.03;;;;;;;-0.57;100.00;97709.06;4988426;28;20225;-67
2021/01/07 07:46:06;;;;;;;24.67;18.83;;;;;;;-0.62;100.00;97714.56;4988528;28;20494;-68
2021/01/07 07:48:37;;;;;;;23.23;17.80;;;;;;;-0.56;100.00;97718.53;4982976;28;20748;-69
2021/01/07 07:51:05;;;;;;;23.80;19.43;;;;;;;-0.53;100.00;97713.13;4982224;28;20635;-68
2021/01/07 07:53:33;;;;;;;22.77;18.67;;;;;;;-0.77;100.00;97723.38;4980866;28;20893;-67
2021/01/07 07:56:00;;;;;;;26.40;20.30;;;;;;;-0.78;100.00;97719.94;4978915;28;20240;-67
2021/01/07 07:58:28;;;;;;;24.60;19.00;;;;;;;-0.76;100.00;97722.44;4966065;28;20217;-67
2021/01/07 08:00:57;;;;;;;21.90;18.97;;;;;;;-0.77;100.00;97716.41;4971707;28;20210;-68
2021/01/07 08:03:24;;;;;;;24.43;19.53;;;;;;;-0.58;100.00;97723.03;4978279;28;20233;-67
2021/01/07 08:05:52;;;;;;;26.77;19.27;;;;;;;-0.53;100.00;97720.13;4976778;28;20212;-68
2021/01/07 08:08:23;;;;;;;24.50;20.57;;;;;;;-0.38;100.00;97720.84;4975612;28;20696;-69
2021/01/07 08:10:52;;;;;;;25.70;20.40;;;;;;;-0.36;100.00;97725.03;4973927;28;20298;-68
2021/01/07 08:13:19;;;;;;;23.63;19.17;;;;;;;-0.40;100.00;97718.38;4975388;28;20886;-68
2021/01/07 08:15:48;;;;;;;23.10;19.60;;;;;;;-0.55;100.00;97724.59;4975780;28;20456;-68
2021/01/07 08:18:17;;;;;;;23.50;18.97;;;;;;;-0.67;100.00;97727.06;4976558;28;20841;-69
2021/01/07 08:20:44;;;;;;;36.63;24.80;;;;;;;-0.82;100.00;97728.88;4968349;28;20452;-68
2021/01/07 08:23:13;;;;;;;25.33;19.40;;;;;;;-0.91;100.00;97727.72;4979844;28;20594;-67
2021/01/07 08:25:40;;;;;;;25.10;19.93;;;;;;;-0.86;100.00;97730.00;4979359;28;20471;-67
2021/01/07 08:28:13;;;;;;;24.80;19.60;;;;;;;-0.74;100.00;97725.78;4967583;28;20792;-67
2021/01/07 08:30:44;;;;;;;26.40;19.13;;;;;;;-0.72;100.00;97729.13;4984560;28;20969;-68
2021/01/07 08:33:12;;;;;;;23.63;18.93;;;;;;;-0.80;100.00;97723.59;4981322;28;20488;-69
2021/01/07 08:35:39;;;;;;;24.87;19.13;;;;;;;-0.69;100.00;97725.50;4973382;28;20449;-68
2021/01/07 08:38:06;;;;;;;22.67;18.27;;;;;;;-0.56;100.00;97734.16;4979969;28;20236;-69
2021/01/07 08:40:33;;;;;;;24.73;20.17;;;;;;;-0.64;100.00;97726.03;4973976;28;20216;-68
2021/01/07 08:43:12;;;;;;;28.40;20.53;;;;;;;-0.57;100.00;97731.66;4979095;28;20198;-68
2021/01/07 08:45:41;;;;;;;24.23;21.50;;;;;;;-0.37;100.00;97725.16;4974615;28;20209;-69
2021/01/07 08:48:09;;;;;;;28.77;21.13;;;;;;;-0.37;100.00;97723.38;4970825;28;20557;-67
2021/01/07 08:50:36;;;;;;;24.37;19.87;;;;;;;-0.31;100.00;97724.75;4970203;28;20454;-68
2021/01/07 08:53:09;;;;;;;24.67;19.23;;;;;;;-0.51;100.00;97726.06;4976324;28;20492;-68
2021/01/07 08:55:49;;;;;;;22.73;19.03;;;;;;;-0.51;100.00;97733.88;4983316;28;20460;-69
2021/01/07 08:58:24;;;;;;;29.53;23.20;;;;;;;-0.58;100.00;97733.44;4977398;28;20223;-68
2021/01/07 09:00:52;;;;;;;26.90;20.87;;;;;;;-0.54;100.00;97729.69;4981671;28;20219;-68
2021/01/07 09:03:20;;;;;;;22.07;18.73;;;;;;;-0.53;100.00;97733.97;4975518;28;20232;-68
2021/01/07 09:05:47;;;;;;;25.80;21.73;;;;;;;-0.23;100.00;97724.22;4967708;28;20588;-69
2021/01/07 09:08:15;;;;;;;22.63;18.20;;;;;;;-0.20;100.00;97726.59;4977553;28;20216;-68
2021/01/07 09:10:42;;;;;;;22.13;17.50;;;;;;;-0.37;100.00;97722.56;4982862;28;20221;-70
2021/01/07 09:13:17;;;;;;;23.03;18.57;;;;;;;-0.28;100.00;97721.94;4970662;28;20232;-69
2021/01/07 09:15:45;;;;;;;22.47;18.83;;;;;;;-0.28;100.00;97721.09;4968913;28;20216;-69
2021/01/07 09:18:13;;;;;;;23.20;19.17;;;;;;;-0.25;100.00;97720.88;4986616;28;20283;-69
2021/01/07 09:20:40;;;;;;;22.33;18.03;;;;;;;-0.16;100.00;97731.53;4984183;28;20214;-68
2021/01/07 09:23:09;;;;;;;22.07;18.37;;;;;;;-0.19;100.00;97723.91;4980754;28;20215;-69
2021/01/07 09:25:37;;;;;;;22.20;18.10;;;;;;;-0.30;100.00;97731.63;4977981;28;20213;-67
2021/01/07 09:28:05;;;;;;;22.90;18.00;;;;;;;-0.34;100.00;97735.38;4976333;28;20212;-68
2021/01/07 09:30:32;;;;;;;21.13;18.83;;;;;;;-0.38;100.00;97734.72;4979219;28;20619;-67
2021/01/07 09:33:00;;;;;;;22.40;19.20;;;;;;;-0.18;100.00;97740.41;4983193;28;20229;-67
2021/01/07 09:35:28;;;;;;;22.23;18.00;;;;;;;0.05;100.00;97738.00;4978478;28;20213;-68
2021/01/07 09:38:00;;;;;;;20.90;18.13;;;;;;;0.03;100.00;97732.06;4985995;28;20233;-69
2021/01/07 09:40:27;;;;;;;19.63;17.37;;;;;;;0.07;100.00;97726.53;4986260;28;20213;-68
2021/01/07 09:42:54;;;;;;;21.97;18.27;;;;;;;0.00;100.00;97733.13;4985591;28;20208;-65
2021/01/07 09:45:21;;;;;;;21.57;17.97;;;;;;;0.11;100.00;97730.59;4980914;28;20209;-67
2021/01/07 09:47:48;;;;;;;20.33;18.10;;;;;;;-0.12;100.00;97721.75;4984404;28;20535;-69
2021/01/07 09:50:18;;;;;;;22.07;17.33;;;;;;;-0.09;100.00;97728.50;4988445;28;20209;-67
2021/01/07 09:52:45;;;;;;;18.37;16.37;;;;;;;-0.25;100.00;97726.94;4990249;28;20236;-69
2021/01/07 09:55:12;;;;;;;19.77;17.67;;;;;;;-0.19;100.00;97726.53;4985848;28;20344;-68
2021/01/07 09:57:45;;;;;;;22.60;17.10;;;;;;;-0.22;100.00;97724.13;4982951;28;20209;-67
2021/01/07 10:00:14;;;;;;;20.10;17.17;;;;;;;-0.31;100.00;97722.16;4985600;28;20217;-69
2021/01/07 10:02:41;;;;;;;20.37;16.07;;;;;;;-0.24;100.00;97727.75;4978794;28;20389;-69
2021/01/07 10:05:10;;;;;;;20.60;17.30;;;;;;;-0.28;100.00;97721.94;4985964;28;20473;-69
2021/01/07 10:07:37;;;;;;;17.97;16.07;;;;;;;-0.13;100.00;97721.84;4984925;28;20209;-68
2021/01/07 10:10:05;;;;;;;18.80;16.20;;;;;;;0.08;100.00;97720.41;4985817;28;20663;-69
2021/01/07 10:12:32;;;;;;;18.97;15.97;;;;;;;-0.06;100.00;97715.25;4983671;28;20564;-69
2021/01/07 10:14:59;;;;;;;18.47;16.47;;;;;;;-0.03;100.00;97709.84;4985610;28;20854;-69
2021/01/07 10:17:28;;;;;;;22.80;17.07;;;;;;;-0.10;100.00;97711.19;4984638;28;20452;-68
2021/01/07 10:19:54;;;;;;;20.83;17.60;;;;;;;-0.01;100.00;97710.56;4986545;28;20213;-68
2021/01/07 10:22:23;;;;;;;20.00;17.27;;;;;;;0.19;100.00;97706.63;4984819;28;20217;-68
2021/01/07 10:24:55;;;;;;;18.03;16.13;;;;;;;-0.04;100.00;97708.19;4990689;28;20221;-67
2021/01/07 10:27:22;;;;;;;18.17;16.13;;;;;;;0.02;100.00;97705.19;4987016;28;20210;-69
2021/01/07 10:29:49;;;;;;;19.10;16.20;;;;;;;-0.18;100.00;97706.53;4989930;28;20209;-69
2021/01/07 10:32:17;;;;;;;17.30;15.40;;;;;;;0.01;100.00;97705.28;4981665;28;20736;-69
2021/01/07 10:34:46;;;;;;;19.20;15.73;;;;;;;-0.16;100.00;97699.44;4990044;28;20582;-69
2021/01/07 10:37:14;;;;;;;18.63;16.30;;;;;;;0.07;100.00;97697.03;4986531;28;20213;-74
2021/01/07 10:39:42;;;;;;;19.80;16.57;;;;;;;-0.10;100.00;97695.56;4988169;28;20240;-67
2021/01/07 10:42:12;;;;;;;16.43;14.80;;;;;;;-0.12;100.00;97700.06;4991148;28;20651;-68
2021/01/07 10:44:40;;;;;;;16.80;15.00;;;;;;;-0.16;100.00;97702.06;4987765;28;20260;-67
2021/01/07 10:47:10;;;;;;;19.63;17.30;;;;;;;-0.21;100.00;97696.28;4988124;28;20216;-71
2021/01/07 10:49:38;;;;;;;20.73;16.17;;;;;;;-0.34;100.00;97689.31;4986457;28;20623;-69
2021/01/07 10:52:23;;;;;;;17.60;15.13;;;;;;;-0.30;100.00;97698.59;4985668;28;20209;-69
2021/01/07 10:55:00;;;;;;;17.10;15.17;;;;;;;-0.21;100.00;97691.09;4985208;28;20757;-69
2021/01/07 10:57:51;;;;;;;16.37;14.70;;;;;;;-0.12;100.00;97685.28;4982254;28;20217;-68
2021/01/07 11:00:22;;;;;;;23.53;17.37;;;;;;;-0.17;100.00;97689.97;4985952;28;20209;-69
2021/01/07 11:03:31;;;;;;;23.17;16.80;;;;;;;-0.08;100.00;97678.91;4985810;28;20932;-68
2021/01/07 11:06:00;;;;;;;20.97;18.27;;;;;;;-0.22;100.00;97682.44;4968512;28;20398;-69
2021/01/07 11:08:31;;;;;;;19.73;17.13;;;;;;;-0.08;100.00;97676.31;4983082;28;20221;-71
2021/01/07 11:11:00;;;;;;;16.13;14.53;;;;;;;-0.16;100.00;97682.03;4986617;28;20209;-71
2021/01/07 11:13:34;;;;;;;16.40;14.63;;;;;;;0.09;100.00;97674.31;4985725;28;20252;-70
2021/01/07 11:16:01;;;;;;;16.33;14.63;;;;;;;0.21;100.00;97670.88;4985238;28;20211;-68